sensor_id;sensor_type;location;lat;lon;timestamp;pressure;altitude;pressure_sealevel;temperature;humidity
5595;BME280;1003;48.002;7.788;2023-05-24T00:00:53;99050.06;;;14.14;100.00
5595;BME280;1003;48.002;7.788;2023-05-24T00:03:21;99049.53;;;14.03;100.00
5595;BME280;1003;48.002;7.788;2023-05-24T00:05:48;99052.16;;;14.00;100.00
5595;BME280;1003;48.002;7.788;2023-05-24T00:08:17;99054.94;;;13.89;100.00
5595;BME280;1003;48.002;7.788;2023-05-24T00:10:45;99058.06;;;13.99;100.00
5595;BME280;1003;48.002;7.788;2023-05-24T00:13:13;99059.25;;;13.86;100.00
5595;BME280;1003;48.002;7.788;2023-05-24T00:15:40;99061.81;;;13.84;100.00
5595;BME280;1003;48.002;7.788;2023-05-24T00:18:07;99060.81;;;13.90;100.00
5595;BME280;1003;48.002;7.788;2023-05-24T00:20:34;99058.41;;;13.85;100.00
5595;BME280;1003;48.002;7.788;2023-05-24T00:23:01;99059.19;;;13.87;100.00
5595;BME280;1003;48.002;7.788;2023-05-24T00:25:28;99060.22;;;13.80;100.00
5595;BME280;1003;48.002;7.788;2023-05-24T00:27:57;99057.19;;;13.68;100.00
5595;BME280;1003;48.002;7.788;2023-05-24T00:30:24;99064.56;;;13.75;100.00
5595;BME280;1003;48.002;7.788;2023-05-24T00:32:51;99067.13;;;13.74;100.00
5595;BME280;1003;48.002;7.788;2023-05-24T00:35:18;99064.81;;;13.64;100.00
5595;BME280;1003;48.002;7.788;2023-05-24T00:37:45;99068.13;;;13.66;100.00
5595;BME280;1003;48.002;7.788;2023-05-24T00:40:13;99061.41;;;13.65;100.00
5595;BME280;1003;48.002;7.788;2023-05-24T00:42:40;99069.03;;;13.64;100.00
5595;BME280;1003;48.002;7.788;2023-05-24T00:45:09;99062.13;;;13.72;100.00
5595;BME280;1003;48.002;7.788;2023-05-24T00:47:37;99059.72;;;13.68;100.00
5595;BME280;1003;48.002;7.788;2023-05-24T00:50:06;99064.03;;;13.62;100.00
5595;BME280;1003;48.002;7.788;2023-05-24T00:52:35;99052.41;;;13.57;100.00
5595;BME280;1003;48.002;7.788;2023-05-24T00:55:03;99056.69;;;13.53;100.00
5595;BME280;1003;48.002;7.788;2023-05-24T00:57:31;99066.88;;;13.49;100.00
5595;BME280;1003;48.002;7.788;2023-05-24T00:59:59;99064.25;;;13.53;100.00
5595;BME280;1003;48.002;7.788;2023-05-24T01:02:27;99060.22;;;13.46;100.00
5595;BME280;1003;48.002;7.788;2023-05-24T01:04:54;99059.34;;;13.47;100.00
5595;BME280;1003;48.002;7.788;2023-05-24T01:07:32;99065.84;;;13.57;100.00
5595;BME280;1003;48.002;7.788;2023-05-24T01:10:11;99060.25;;;13.45;100.00
5595;BME280;1003;48.002;7.788;2023-05-24T01:13:04;99062.56;;;13.54;100.00
5595;BME280;1003;48.002;7.788;2023-05-24T01:15:44;99066.09;;;13.47;100.00
5595;BME280;1003;48.002;7.788;2023-05-24T01:18:23;99068.78;;;13.39;100.00
5595;BME280;1003;48.002;7.788;2023-05-24T01:21:10;99075.59;;;13.37;100.00
5595;BME280;1003;48.002;7.788;2023-05-24T01:23:46;99072.09;;;13.43;100.00
5595;BME280;1003;48.002;7.788;2023-05-24T01:26:31;99079.06;;;13.31;100.00
5595;BME280;1003;48.002;7.788;2023-05-24T01:29:04;99076.34;;;13.41;100.00
5595;BME280;1003;48.002;7.788;2023-05-24T01:31:33;99075.44;;;13.43;100.00
5595;BME280;1003;48.002;7.788;2023-05-24T01:34:00;99068.13;;;13.32;100.00
5595;BME280;1003;48.002;7.788;2023-05-24T01:36:27;99069.75;;;13.33;100.00
5595;BME280;1003;48.002;7.788;2023-05-24T01:38:54;99066.25;;;13.41;100.00
5595;BME280;1003;48.002;7.788;2023-05-24T01:41:36;99066.50;;;13.28;100.00
5595;BME280;1003;48.002;7.788;2023-05-24T01:44:15;99073.50;;;13.16;100.00
5595;BME280;1003;48.002;7.788;2023-05-24T01:46:49;99066.91;;;13.10;100.00
5595;BME280;1003;48.002;7.788;2023-05-24T01:49:25;99059.34;;;13.10;100.00
5595;BME280;1003;48.002;7.788;2023-05-24T01:51:58;99061.81;;;13.13;100.00
5595;BME280;1003;48.002;7.788;2023-05-24T01:54:30;99059.53;;;13.02;100.00
5595;BME280;1003;48.002;7.788;2023-05-24T01:57:01;99065.31;;;13.06;100.00
5595;BME280;1003;48.002;7.788;2023-05-24T01:59:33;99069.63;;;13.02;100.00
5595;BME280;1003;48.002;7.788;2023-05-24T02:02:01;99068.59;;;13.09;100.00
5595;BME280;1003;48.002;7.788;2023-05-24T02:04:29;99074.53;;;13.07;100.00
5595;BME280;1003;48.002;7.788;2023-05-24T02:06:56;99064.44;;;13.08;100.00
5595;BME280;1003;48.002;7.788;2023-05-24T02:09:23;99063.72;;;13.02;100.00
5595;BME280;1003;48.002;7.788;2023-05-24T02:11:50;99064.81;;;12.90;100.00
5595;BME280;1003;48.002;7.788;2023-05-24T02:14:17;99063.97;;;12.90;100.00
5595;BME280;1003;48.002;7.788;2023-05-24T02:16:46;99061.41;;;12.91;100.00
5595;BME280;1003;48.002;7.788;2023-05-24T02:19:15;99065.63;;;12.91;100.00
5595;BME280;1003;48.002;7.788;2023-05-24T02:21:43;99064.03;;;12.88;100.00
5595;BME280;1003;48.002;7.788;2023-05-24T02:24:10;99065.84;;;12.81;100.00
5595;BME280;1003;48.002;7.788;2023-05-24T02:26:37;99064.25;;;12.77;100.00
5595;BME280;1003;48.002;7.788;2023-05-24T02:29:04;99053.38;;;12.75;100.00
5595;BME280;1003;48.002;7.788;2023-05-24T02:31:32;99052.19;;;12.92;100.00
5595;BME280;1003;48.002;7.788;2023-05-24T02:34:01;99049.03;;;12.82;100.00
5595;BME280;1003;48.002;7.788;2023-05-24T02:36:28;99051.78;;;12.71;100.00
5595;BME280;1003;48.002;7.788;2023-05-24T02:38:57;99059.56;;;12.60;100.00
5595;BME280;1003;48.002;7.788;2023-05-24T02:41:24;99054.47;;;12.62;100.00
5595;BME280;1003;48.002;7.788;2023-05-24T02:43:51;99046.22;;;12.55;100.00
5595;BME280;1003;48.002;7.788;2023-05-24T02:46:18;99063.50;;;12.72;100.00
5595;BME280;1003;48.002;7.788;2023-05-24T02:48:45;99049.53;;;12.57;100.00
5595;BME280;1003;48.002;7.788;2023-05-24T02:51:15;99049.78;;;12.45;100.00
5595;BME280;1003;48.002;7.788;2023-05-24T02:53:42;99047.38;;;12.38;100.00
5595;BME280;1003;48.002;7.788;2023-05-24T02:56:10;99051.56;;;12.40;100.00
5595;BME280;1003;48.002;7.788;2023-05-24T02:58:38;99047.91;;;12.53;100.00
5595;BME280;1003;48.002;7.788;2023-05-24T03:01:06;99044.38;;;12.62;100.00
5595;BME280;1003;48.002;7.788;2023-05-24T03:03:33;99036.97;;;12.56;100.00
5595;BME280;1003;48.002;7.788;2023-05-24T03:06:00;99039.53;;;12.53;100.00
5595;BME280;1003;48.002;7.788;2023-05-24T03:08:29;99033.66;;;12.52;100.00
5595;BME280;1003;48.002;7.788;2023-05-24T03:10:56;99031.13;;;12.52;100.00
5595;BME280;1003;48.002;7.788;2023-05-24T03:13:23;99030.38;;;12.49;100.00
5595;BME280;1003;48.002;7.788;2023-05-24T03:15:50;99033.78;;;12.46;100.00
5595;BME280;1003;48.002;7.788;2023-05-24T03:18:17;99028.63;;;12.52;100.00
5595;BME280;1003;48.002;7.788;2023-05-24T03:20:44;99029.34;;;12.57;100.00
5595;BME280;1003;48.002;7.788;2023-05-24T03:23:11;99032.75;;;12.56;100.00
5595;BME280;1003;48.002;7.788;2023-05-24T03:25:41;99024.34;;;12.56;100.00
5595;BME280;1003;48.002;7.788;2023-05-24T03:28:08;99026.97;;;12.51;100.00
5595;BME280;1003;48.002;7.788;2023-05-24T03:30:35;99030.38;;;12.49;100.00
5595;BME280;1003;48.002;7.788;2023-05-24T03:33:02;99027.75;;;12.55;100.00
5595;BME280;1003;48.002;7.788;2023-05-24T03:35:29;99031.88;;;12.57;100.00
5595;BME280;1003;48.002;7.788;2023-05-24T03:37:56;99036.88;;;12.60;100.00
5595;BME280;1003;48.002;7.788;2023-05-24T03:40:23;99044.34;;;12.64;100.00
5595;BME280;1003;48.002;7.788;2023-05-24T03:42:54;99044.53;;;12.56;100.00
5595;BME280;1003;48.002;7.788;2023-05-24T03:45:21;99048.97;;;12.43;100.00
5595;BME280;1003;48.002;7.788;2023-05-24T03:47:48;99054.72;;;12.50;100.00
5595;BME280;1003;48.002;7.788;2023-05-24T03:50:16;99051.16;;;12.60;100.00
5595;BME280;1003;48.002;7.788;2023-05-24T03:52:43;99051.44;;;12.46;100.00
5595;BME280;1003;48.002;7.788;2023-05-24T03:55:10;99064.97;;;12.41;100.00
5595;BME280;1003;48.002;7.788;2023-05-24T03:57:37;99061.50;;;12.46;100.00
5595;BME280;1003;48.002;7.788;2023-05-24T04:00:07;99061.25;;;12.60;100.00
5595;BME280;1003;48.002;7.788;2023-05-24T04:02:34;99060.41;;;12.59;100.00
5595;BME280;1003;48.002;7.788;2023-05-24T04:05:02;99053.91;;;12.49;100.00
5595;BME280;1003;48.002;7.788;2023-05-24T04:07:30;99063.91;;;12.54;100.00
5595;BME280;1003;48.002;7.788;2023-05-24T04:09:58;99068.13;;;12.52;100.00
5595;BME280;1003;48.002;7.788;2023-05-24T04:12:25;99066.47;;;12.51;100.00
5595;BME280;1003;48.002;7.788;2023-05-24T04:14:52;99067.59;;;12.36;100.00
5595;BME280;1003;48.002;7.788;2023-05-24T04:17:21;99072.59;;;12.39;100.00
5595;BME280;1003;48.002;7.788;2023-05-24T04:19:49;99066.69;;;12.40;100.00
5595;BME280;1003;48.002;7.788;2023-05-24T04:22:16;99070.91;;;12.40;100.00
5595;BME280;1003;48.002;7.788;2023-05-24T04:24:43;99075.75;;;12.49;100.00
5595;BME280;1003;48.002;7.788;2023-05-24T04:27:10;99079.25;;;12.42;100.00
5595;BME280;1003;48.002;7.788;2023-05-24T04:29:38;99076.81;;;12.39;100.00
5595;BME280;1003;48.002;7.788;2023-05-24T04:32:06;99076.06;;;12.33;100.00
5595;BME280;1003;48.002;7.788;2023-05-24T04:34:36;99072.38;;;12.48;100.00
5595;BME280;1003;48.002;7.788;2023-05-24T04:37:07;99065.94;;;12.35;100.00
5595;BME280;1003;48.002;7.788;2023-05-24T04:39:34;99068.28;;;12.43;100.00
5595;BME280;1003;48.002;7.788;2023-05-24T04:42:01;99066.72;;;12.39;100.00
5595;BME280;1003;48.002;7.788;2023-05-24T04:44:28;99062.59;;;12.34;100.00
5595;BME280;1003;48.002;7.788;2023-05-24T04:46:55;99066.72;;;12.37;100.00
5595;BME280;1003;48.002;7.788;2023-05-24T04:49:23;99058.34;;;12.37;100.00
5595;BME280;1003;48.002;7.788;2023-05-24T04:51:51;99071.56;;;12.49;100.00
5595;BME280;1003;48.002;7.788;2023-05-24T04:54:18;99064.72;;;12.54;100.00
5595;BME280;1003;48.002;7.788;2023-05-24T04:56:45;99068.00;;;12.59;100.00
5595;BME280;1003;48.002;7.788;2023-05-24T04:59:12;99063.69;;;12.65;100.00
5595;BME280;1003;48.002;7.788;2023-05-24T05:01:39;99066.94;;;12.68;100.00
5595;BME280;1003;48.002;7.788;2023-05-24T05:04:06;99071.72;;;12.80;100.00
5595;BME280;1003;48.002;7.788;2023-05-24T05:06:34;99071.50;;;12.93;100.00
5595;BME280;1003;48.002;7.788;2023-05-24T05:09:05;99065.53;;;12.95;100.00
5595;BME280;1003;48.002;7.788;2023-05-24T05:11:34;99064.81;;;12.90;100.00
5595;BME280;1003;48.002;7.788;2023-05-24T05:14:01;99066.44;;;12.93;100.00
5595;BME280;1003;48.002;7.788;2023-05-24T05:16:28;99057.63;;;13.10;100.00
5595;BME280;1003;48.002;7.788;2023-05-24T05:18:55;99066.09;;;13.09;100.00
5595;BME280;1003;48.002;7.788;2023-05-24T05:21:22;99068.38;;;13.20;100.00
5595;BME280;1003;48.002;7.788;2023-05-24T05:23:49;99068.94;;;13.33;100.00
5595;BME280;1003;48.002;7.788;2023-05-24T05:26:17;99072.88;;;13.45;100.00
5595;BME280;1003;48.002;7.788;2023-05-24T05:28:44;99081.88;;;13.56;100.00
5595;BME280;1003;48.002;7.788;2023-05-24T05:31:12;99073.78;;;13.76;100.00
5595;BME280;1003;48.002;7.788;2023-05-24T05:33:39;99076.16;;;14.15;100.00
5595;BME280;1003;48.002;7.788;2023-05-24T05:36:06;99074.34;;;14.20;100.00
5595;BME280;1003;48.002;7.788;2023-05-24T05:38:33;99086.19;;;14.18;100.00
5595;BME280;1003;48.002;7.788;2023-05-24T05:41:00;99083.66;;;14.51;100.00
5595;BME280;1003;48.002;7.788;2023-05-24T05:43:30;99080.41;;;14.45;100.00
5595;BME280;1003;48.002;7.788;2023-05-24T05:45:57;99074.75;;;14.36;100.00
5595;BME280;1003;48.002;7.788;2023-05-24T05:48:25;99084.94;;;14.34;100.00
5595;BME280;1003;48.002;7.788;2023-05-24T05:50:52;99083.78;;;14.13;100.00
5595;BME280;1003;48.002;7.788;2023-05-24T05:53:19;99088.00;;;14.45;100.00
5595;BME280;1003;48.002;7.788;2023-05-24T05:55:46;99086.00;;;14.58;100.00
5595;BME280;1003;48.002;7.788;2023-05-24T05:58:13;99099.63;;;14.53;100.00
5595;BME280;1003;48.002;7.788;2023-05-24T06:00:42;99101.47;;;14.13;100.00
5595;BME280;1003;48.002;7.788;2023-05-24T06:03:09;99098.63;;;14.27;100.00
5595;BME280;1003;48.002;7.788;2023-05-24T06:05:36;99102.28;;;14.15;100.00
5595;BME280;1003;48.002;7.788;2023-05-24T06:08:03;99102.47;;;14.08;100.00
5595;BME280;1003;48.002;7.788;2023-05-24T06:10:30;99116.66;;;13.79;100.00
5595;BME280;1003;48.002;7.788;2023-05-24T06:12:57;99114.41;;;13.69;100.00
5595;BME280;1003;48.002;7.788;2023-05-24T06:15:24;99119.19;;;13.44;100.00
5595;BME280;1003;48.002;7.788;2023-05-24T06:17:53;99118.53;;;13.35;100.00
5595;BME280;1003;48.002;7.788;2023-05-24T06:20:20;99118.56;;;13.34;100.00
5595;BME280;1003;48.002;7.788;2023-05-24T06:22:47;99117.13;;;13.22;100.00
5595;BME280;1003;48.002;7.788;2023-05-24T06:25:15;99119.06;;;13.09;100.00
5595;BME280;1003;48.002;7.788;2023-05-24T06:27:45;99121.75;;;13.02;100.00
5595;BME280;1003;48.002;7.788;2023-05-24T06:30:13;99124.31;;;13.00;100.00
5595;BME280;1003;48.002;7.788;2023-05-24T06:32:40;99133.63;;;12.97;100.00
5595;BME280;1003;48.002;7.788;2023-05-24T06:35:09;99134.16;;;13.11;100.00
5595;BME280;1003;48.002;7.788;2023-05-24T06:37:36;99128.88;;;13.25;100.00
5595;BME280;1003;48.002;7.788;2023-05-24T06:40:05;99123.09;;;13.57;100.00
5595;BME280;1003;48.002;7.788;2023-05-24T06:42:34;99136.44;;;13.62;100.00
5595;BME280;1003;48.002;7.788;2023-05-24T06:45:01;99138.53;;;13.80;100.00
5595;BME280;1003;48.002;7.788;2023-05-24T06:47:29;99129.19;;;13.84;100.00
5595;BME280;1003;48.002;7.788;2023-05-24T06:49:56;99137.06;;;14.06;100.00
5595;BME280;1003;48.002;7.788;2023-05-24T06:52:25;99139.66;;;14.37;100.00
5595;BME280;1003;48.002;7.788;2023-05-24T06:54:52;99139.91;;;14.60;100.00
5595;BME280;1003;48.002;7.788;2023-05-24T06:57:19;99150.72;;;14.31;100.00
5595;BME280;1003;48.002;7.788;2023-05-24T06:59:47;99152.03;;;14.13;100.00
5595;BME280;1003;48.002;7.788;2023-05-24T07:02:14;99145.88;;;14.24;100.00
5595;BME280;1003;48.002;7.788;2023-05-24T07:04:41;99147.09;;;14.43;100.00
5595;BME280;1003;48.002;7.788;2023-05-24T07:07:09;99145.03;;;14.57;100.00
5595;BME280;1003;48.002;7.788;2023-05-24T07:09:39;99150.84;;;14.61;100.00
5595;BME280;1003;48.002;7.788;2023-05-24T07:12:07;99151.97;;;14.82;100.00
5595;BME280;1003;48.002;7.788;2023-05-24T07:14:34;99145.94;;;14.55;100.00
5595;BME280;1003;48.002;7.788;2023-05-24T07:17:02;99159.44;;;14.86;100.00
5595;BME280;1003;48.002;7.788;2023-05-24T07:19:29;99157.53;;;14.93;100.00
5595;BME280;1003;48.002;7.788;2023-05-24T07:21:58;99164.31;;;14.61;100.00
5595;BME280;1003;48.002;7.788;2023-05-24T07:24:25;99167.66;;;14.62;100.00
5595;BME280;1003;48.002;7.788;2023-05-24T07:26:53;99170.44;;;14.85;100.00
5595;BME280;1003;48.002;7.788;2023-05-24T07:29:21;99169.97;;;15.01;100.00
5595;BME280;1003;48.002;7.788;2023-05-24T07:31:48;99170.13;;;14.96;100.00
5595;BME280;1003;48.002;7.788;2023-05-24T07:34:15;99173.31;;;14.72;100.00
5595;BME280;1003;48.002;7.788;2023-05-24T07:36:42;99190.44;;;14.62;100.00
5595;BME280;1003;48.002;7.788;2023-05-24T07:39:10;99191.66;;;14.47;100.00
5595;BME280;1003;48.002;7.788;2023-05-24T07:41:40;99185.44;;;14.26;100.00
5595;BME280;1003;48.002;7.788;2023-05-24T07:44:09;99187.94;;;13.92;100.00
5595;BME280;1003;48.002;7.788;2023-05-24T07:46:36;99190.22;;;14.03;100.00
5595;BME280;1003;48.002;7.788;2023-05-24T07:49:04;99192.75;;;14.03;100.00
5595;BME280;1003;48.002;7.788;2023-05-24T07:51:31;99190.56;;;13.89;100.00
5595;BME280;1003;48.002;7.788;2023-05-24T07:53:58;99192.56;;;14.10;100.00
5595;BME280;1003;48.002;7.788;2023-05-24T07:56:25;99190.63;;;14.20;100.00
5595;BME280;1003;48.002;7.788;2023-05-24T07:58:52;99193.91;;;14.24;100.00
5595;BME280;1003;48.002;7.788;2023-05-24T08:01:29;99201.13;;;14.39;100.00
5595;BME280;1003;48.002;7.788;2023-05-24T08:03:56;99190.97;;;14.40;100.00
5595;BME280;1003;48.002;7.788;2023-05-24T08:06:23;99193.19;;;14.53;100.00
5595;BME280;1003;48.002;7.788;2023-05-24T08:08:51;99198.19;;;14.56;100.00
5595;BME280;1003;48.002;7.788;2023-05-24T08:11:18;99193.78;;;14.62;100.00
5595;BME280;1003;48.002;7.788;2023-05-24T08:13:46;99196.56;;;14.86;100.00
5595;BME280;1003;48.002;7.788;2023-05-24T08:16:15;99203.81;;;14.98;100.00
5595;BME280;1003;48.002;7.788;2023-05-24T08:18:43;99203.75;;;15.00;100.00
5595;BME280;1003;48.002;7.788;2023-05-24T08:21:10;99208.44;;;15.13;100.00
5595;BME280;1003;48.002;7.788;2023-05-24T08:23:37;99208.38;;;14.85;100.00
5595;BME280;1003;48.002;7.788;2023-05-24T08:26:05;99215.09;;;15.16;100.00
5595;BME280;1003;48.002;7.788;2023-05-24T08:28:34;99207.91;;;15.02;100.00
5595;BME280;1003;48.002;7.788;2023-05-24T08:31:01;99216.50;;;14.96;100.00
5595;BME280;1003;48.002;7.788;2023-05-24T08:33:29;99215.59;;;14.99;100.00
5595;BME280;1003;48.002;7.788;2023-05-24T08:35:57;99215.09;;;15.17;100.00
5595;BME280;1003;48.002;7.788;2023-05-24T08:38:24;99216.16;;;15.38;100.00
5595;BME280;1003;48.002;7.788;2023-05-24T08:40:51;99212.78;;;15.39;100.00
5595;BME280;1003;48.002;7.788;2023-05-24T08:43:20;99209.75;;;15.27;100.00
5595;BME280;1003;48.002;7.788;2023-05-24T08:45:48;99206.53;;;15.49;100.00
5595;BME280;1003;48.002;7.788;2023-05-24T08:48:17;99207.75;;;15.94;100.00
5595;BME280;1003;48.002;7.788;2023-05-24T08:50:46;99213.78;;;15.62;100.00
5595;BME280;1003;48.002;7.788;2023-05-24T08:53:14;99219.25;;;15.78;100.00
5595;BME280;1003;48.002;7.788;2023-05-24T08:55:43;99214.00;;;15.84;100.00
5595;BME280;1003;48.002;7.788;2023-05-24T08:58:11;99218.13;;;16.13;100.00
5595;BME280;1003;48.002;7.788;2023-05-24T09:00:38;99215.34;;;15.67;100.00
5595;BME280;1003;48.002;7.788;2023-05-24T09:03:06;99221.78;;;15.48;100.00
5595;BME280;1003;48.002;7.788;2023-05-24T09:05:35;99222.00;;;15.40;100.00
5595;BME280;1003;48.002;7.788;2023-05-24T09:08:03;99221.38;;;15.34;100.00
5595;BME280;1003;48.002;7.788;2023-05-24T09:10:33;99218.41;;;15.47;100.00
5595;BME280;1003;48.002;7.788;2023-05-24T09:13:02;99218.53;;;15.44;100.00
5595;BME280;1003;48.002;7.788;2023-05-24T09:15:30;99219.81;;;15.58;100.00
5595;BME280;1003;48.002;7.788;2023-05-24T09:17:57;99234.50;;;15.46;100.00
5595;BME280;1003;48.002;7.788;2023-05-24T09:20:24;99223.75;;;15.38;100.00
5595;BME280;1003;48.002;7.788;2023-05-24T09:22:52;99226.00;;;15.19;100.00
5595;BME280;1003;48.002;7.788;2023-05-24T09:25:19;99235.34;;;15.17;100.00
5595;BME280;1003;48.002;7.788;2023-05-24T09:27:52;99238.25;;;15.04;100.00
5595;BME280;1003;48.002;7.788;2023-05-24T09:30:19;99226.09;;;14.85;100.00
5595;BME280;1003;48.002;7.788;2023-05-24T09:32:57;99227.69;;;15.19;100.00
5595;BME280;1003;48.002;7.788;2023-05-24T09:35:26;99224.16;;;15.25;100.00
5595;BME280;1003;48.002;7.788;2023-05-24T09:37:54;99221.09;;;15.43;100.00
5595;BME280;1003;48.002;7.788;2023-05-24T09:40:22;99222.72;;;15.45;100.00
5595;BME280;1003;48.002;7.788;2023-05-24T09:43:06;99232.53;;;15.27;100.00
5595;BME280;1003;48.002;7.788;2023-05-24T09:45:40;99232.22;;;15.08;100.00
5595;BME280;1003;48.002;7.788;2023-05-24T09:48:11;99236.69;;;15.29;100.00
5595;BME280;1003;48.002;7.788;2023-05-24T09:50:39;99238.59;;;14.91;100.00
5595;BME280;1003;48.002;7.788;2023-05-24T09:53:07;99235.47;;;15.13;100.00
5595;BME280;1003;48.002;7.788;2023-05-24T09:55:35;99237.59;;;15.27;100.00
5595;BME280;1003;48.002;7.788;2023-05-24T09:58:06;99241.47;;;15.38;100.00
5595;BME280;1003;48.002;7.788;2023-05-24T10:00:35;99238.13;;;15.38;100.00
5595;BME280;1003;48.002;7.788;2023-05-24T10:03:06;99243.03;;;15.73;100.00
5595;BME280;1003;48.002;7.788;2023-05-24T10:05:34;99238.25;;;15.91;100.00
5595;BME280;1003;48.002;7.788;2023-05-24T10:08:02;99233.72;;;15.74;100.00
5595;BME280;1003;48.002;7.788;2023-05-24T10:10:32;99231.75;;;16.10;100.00
5595;BME280;1003;48.002;7.788;2023-05-24T10:13:01;99235.06;;;16.12;100.00
5595;BME280;1003;48.002;7.788;2023-05-24T10:15:29;99230.94;;;16.08;100.00
5595;BME280;1003;48.002;7.788;2023-05-24T10:17:57;99233.69;;;16.02;100.00
5595;BME280;1003;48.002;7.788;2023-05-24T10:20:26;99236.75;;;16.38;100.00
5595;BME280;1003;48.002;7.788;2023-05-24T10:22:59;99243.16;;;16.75;100.00
5595;BME280;1003;48.002;7.788;2023-05-24T10:25:28;99244.91;;;16.73;100.00
5595;BME280;1003;48.002;7.788;2023-05-24T10:28:01;99243.72;;;16.58;100.00
5595;BME280;1003;48.002;7.788;2023-05-24T10:30:33;99246.69;;;16.71;100.00
5595;BME280;1003;48.002;7.788;2023-05-24T10:33:05;99249.38;;;16.91;100.00
5595;BME280;1003;48.002;7.788;2023-05-24T10:35:35;99249.09;;;16.99;100.00
5595;BME280;1003;48.002;7.788;2023-05-24T10:38:05;99251.84;;;16.93;100.00
5595;BME280;1003;48.002;7.788;2023-05-24T10:40:33;99243.84;;;17.27;100.00
5595;BME280;1003;48.002;7.788;2023-05-24T10:43:03;99245.91;;;17.17;100.00
5595;BME280;1003;48.002;7.788;2023-05-24T10:45:37;99247.78;;;17.36;100.00
5595;BME280;1003;48.002;7.788;2023-05-24T10:48:30;99247.09;;;16.84;100.00
5595;BME280;1003;48.002;7.788;2023-05-24T10:51:00;99244.06;;;17.44;100.00
5595;BME280;1003;48.002;7.788;2023-05-24T10:53:27;99250.38;;;17.79;100.00
5595;BME280;1003;48.002;7.788;2023-05-24T10:55:56;99245.59;;;17.94;100.00
5595;BME280;1003;48.002;7.788;2023-05-24T10:58:43;99250.84;;;17.67;100.00
5595;BME280;1003;48.002;7.788;2023-05-24T11:01:23;99247.09;;;17.77;100.00
5595;BME280;1003;48.002;7.788;2023-05-24T11:03:51;99251.47;;;17.50;100.00
5595;BME280;1003;48.002;7.788;2023-05-24T11:06:18;99247.94;;;17.31;100.00
5595;BME280;1003;48.002;7.788;2023-05-24T11:08:46;99254.19;;;17.68;100.00
5595;BME280;1003;48.002;7.788;2023-05-24T11:11:14;99258.97;;;17.77;100.00
5595;BME280;1003;48.002;7.788;2023-05-24T11:13:42;99257.44;;;17.73;100.00
5595;BME280;1003;48.002;7.788;2023-05-24T11:16:32;99249.47;;;17.58;100.00
5595;BME280;1003;48.002;7.788;2023-05-24T11:19:11;99256.44;;;17.99;100.00
5595;BME280;1003;48.002;7.788;2023-05-24T11:21:39;99260.91;;;17.47;100.00
5595;BME280;1003;48.002;7.788;2023-05-24T11:24:07;99255.66;;;17.75;100.00
5595;BME280;1003;48.002;7.788;2023-05-24T11:26:35;99246.59;;;17.90;100.00
5595;BME280;1003;48.002;7.788;2023-05-24T11:29:03;99253.44;;;17.66;100.00
5595;BME280;1003;48.002;7.788;2023-05-24T11:31:32;99257.03;;;17.83;100.00
5595;BME280;1003;48.002;7.788;2023-05-24T11:33:59;99251.47;;;17.50;100.00
5595;BME280;1003;48.002;7.788;2023-05-24T11:36:27;99250.56;;;17.75;100.00
5595;BME280;1003;48.002;7.788;2023-05-24T11:38:55;99242.75;;;17.79;100.00
5595;BME280;1003;48.002;7.788;2023-05-24T11:41:23;99249.78;;;17.95;100.00
5595;BME280;1003;48.002;7.788;2023-05-24T11:43:51;99251.81;;;17.87;100.00
5595;BME280;1003;48.002;7.788;2023-05-24T11:46:18;99236.84;;;17.79;100.00
5595;BME280;1003;48.002;7.788;2023-05-24T11:48:55;99238.19;;;17.66;100.00
5595;BME280;1003;48.002;7.788;2023-05-24T11:51:26;99233.56;;;17.77;100.00
5595;BME280;1003;48.002;7.788;2023-05-24T11:53:55;99234.59;;;17.71;100.00
5595;BME280;1003;48.002;7.788;2023-05-24T11:56:23;99231.69;;;18.02;100.00
5595;BME280;1003;48.002;7.788;2023-05-24T11:59:07;99228.03;;;18.09;100.00
5595;BME280;1003;48.002;7.788;2023-05-24T12:01:35;99224.72;;;18.28;100.00
5595;BME280;1003;48.002;7.788;2023-05-24T12:04:05;99223.59;;;18.15;100.00
5595;BME280;1003;48.002;7.788;2023-05-24T12:06:37;99224.72;;;18.28;100.00
5595;BME280;1003;48.002;7.788;2023-05-24T12:09:05;99215.94;;;18.15;100.00
5595;BME280;1003;48.002;7.788;2023-05-24T12:11:38;99212.34;;;18.41;100.00
5595;BME280;1003;48.002;7.788;2023-05-24T12:14:10;99204.91;;;18.36;100.00
5595;BME280;1003;48.002;7.788;2023-05-24T12:16:38;99208.84;;;18.43;100.00
5595;BME280;1003;48.002;7.788;2023-05-24T12:19:07;99210.59;;;18.61;100.00
5595;BME280;1003;48.002;7.788;2023-05-24T12:21:40;99216.41;;;18.85;100.00
5595;BME280;1003;48.002;7.788;2023-05-24T12:24:09;99207.47;;;19.14;100.00
5595;BME280;1003;48.002;7.788;2023-05-24T12:26:40;99199.69;;;19.18;100.00
5595;BME280;1003;48.002;7.788;2023-05-24T12:29:09;99201.81;;;19.08;100.00
5595;BME280;1003;48.002;7.788;2023-05-24T12:31:39;99197.97;;;19.18;100.00
5595;BME280;1003;48.002;7.788;2023-05-24T12:34:11;99193.69;;;19.92;100.00
5595;BME280;1003;48.002;7.788;2023-05-24T12:36:39;99192.94;;;20.08;100.00
5595;BME280;1003;48.002;7.788;2023-05-24T12:39:18;99193.69;;;19.92;100.00
5595;BME280;1003;48.002;7.788;2023-05-24T12:41:50;99181.56;;;19.96;100.00
5595;BME280;1003;48.002;7.788;2023-05-24T12:44:22;99179.94;;;20.12;100.00
5595;BME280;1003;48.002;7.788;2023-05-24T12:46:52;99174.06;;;20.45;100.00
5595;BME280;1003;48.002;7.788;2023-05-24T12:49:21;99174.22;;;20.42;100.00
5595;BME280;1003;48.002;7.788;2023-05-24T12:51:49;99177.53;;;20.27;100.00
5595;BME280;1003;48.002;7.788;2023-05-24T12:54:20;99176.94;;;19.87;100.00
5595;BME280;1003;48.002;7.788;2023-05-24T12:56:48;99175.53;;;19.99;100.00
5595;BME280;1003;48.002;7.788;2023-05-24T12:59:15;99179.34;;;20.07;100.00
5595;BME280;1003;48.002;7.788;2023-05-24T13:01:42;99181.19;;;19.69;100.00
5595;BME280;1003;48.002;7.788;2023-05-24T13:04:15;99169.13;;;19.18;100.00
5595;BME280;1003;48.002;7.788;2023-05-24T13:06:43;99167.34;;;19.37;100.00
5595;BME280;1003;48.002;7.788;2023-05-24T13:09:10;99163.78;;;19.41;100.00
5595;BME280;1003;48.002;7.788;2023-05-24T13:11:39;99165.16;;;19.29;100.00
5595;BME280;1003;48.002;7.788;2023-05-24T13:14:06;99158.00;;;19.37;100.00
5595;BME280;1003;48.002;7.788;2023-05-24T13:16:33;99156.81;;;19.45;100.00
5595;BME280;1003;48.002;7.788;2023-05-24T13:19:01;99158.34;;;19.30;100.00